createdAt,value
2022-12-09T00:01:14.868Z,25.60
2022-12-09T00:04:02.750Z,24.38
2022-12-09T00:06:50.574Z,23.65
2022-12-09T00:09:38.231Z,23.48
2022-12-09T00:12:12.032Z,22.88
2022-12-09T00:14:45.558Z,25.27
2022-12-09T00:17:23.575Z,24.58
2022-12-09T00:20:05.709Z,24.48
2022-12-09T00:22:50.580Z,23.42
2022-12-09T00:25:39.428Z,23.40
2022-12-09T00:28:19.926Z,23.13
2022-12-09T00:31:02.382Z,23.67
2022-12-09T00:33:51.760Z,23.17
2022-12-09T00:36:32.942Z,24.42
2022-12-09T00:39:17.893Z,23.77
2022-12-09T00:42:02.739Z,24.77
2022-12-09T00:44:36.268Z,23.88
2022-12-09T00:47:18.712Z,23.50
2022-12-09T00:50:01.018Z,23.08
2022-12-09T00:52:48.847Z,22.83
2022-12-09T00:55:35.149Z,22.23
2022-12-09T00:58:22.992Z,24.83
2022-12-09T01:01:10.788Z,24.20
2022-12-09T01:03:45.252Z,23.58
2022-12-09T01:06:35.304Z,24.77
2022-12-09T01:09:18.666Z,24.65
2022-12-09T01:11:58.485Z,23.15
2022-12-09T01:14:35.249Z,26.23
2022-12-09T01:17:14.342Z,25.70
2022-12-09T01:19:54.694Z,24.55
2022-12-09T01:22:41.687Z,23.85
2022-12-09T01:25:19.812Z,26.50
2022-12-09T01:28:07.424Z,25.55
2022-12-09T01:30:55.218Z,25.02
2022-12-09T01:33:43.555Z,25.58
2022-12-09T01:36:31.722Z,23.95
2022-12-09T01:39:11.593Z,24.50
2022-12-09T01:41:55.532Z,23.67
2022-12-09T01:44:34.500Z,26.38
2022-12-09T01:47:22.892Z,25.27
2022-12-09T01:49:56.144Z,26.13
2022-12-09T01:52:25.072Z,26.73
2022-12-09T01:54:56.092Z,25.20
2022-12-09T01:57:32.416Z,24.50
2022-12-09T02:00:10.092Z,24.38
2022-12-09T02:03:04.023Z,24.35
2022-12-09T02:05:40.672Z,23.17
2022-12-09T02:08:23.456Z,25.00
2022-12-09T02:11:31.452Z,18.58
2022-12-09T02:14:27.819Z,24.70
2022-12-09T02:17:25.071Z,22.55
2022-12-09T02:19:56.056Z,25.45
2022-12-09T02:22:26.871Z,25.67
2022-12-09T02:24:59.068Z,26.92
2022-12-09T02:27:38.289Z,25.58
2022-12-09T02:30:23.882Z,25.05
2022-12-09T02:33:07.925Z,25.63
2022-12-09T02:35:40.033Z,24.98
2022-12-09T02:38:08.494Z,24.05
2022-12-09T02:40:40.624Z,24.17
2022-12-09T02:43:11.082Z,24.05
2022-12-09T02:45:44.053Z,23.38
2022-12-09T02:48:25.451Z,23.70
2022-12-09T02:51:04.309Z,26.10
2022-12-09T02:53:53.687Z,24.45
2022-12-09T02:56:42.456Z,24.50
2022-12-09T02:59:27.830Z,22.70
2022-12-09T03:02:13.064Z,24.38
2022-12-09T03:05:16.248Z,24.38
2022-12-09T03:08:00.454Z,24.33
2022-12-09T03:10:39.923Z,23.80
2022-12-09T03:13:15.165Z,25.00
2022-12-09T03:15:46.814Z,22.35
2022-12-09T03:18:20.287Z,24.08
2022-12-09T03:20:50.487Z,22.60
2022-12-09T03:23:20.256Z,25.05
2022-12-09T03:25:53.193Z,23.77
2022-12-09T03:28:31.257Z,22.80
2022-12-09T03:31:14.222Z,22.73
2022-12-09T03:34:02.863Z,25.58
2022-12-09T03:36:45.973Z,23.45
2022-12-09T03:39:34.394Z,23.08
2022-12-09T03:45:06.272Z,23.00
2022-12-09T03:47:54.294Z,25.38
2022-12-09T03:50:35.197Z,23.15
2022-12-09T03:53:22.674Z,22.25
2022-12-09T03:56:09.014Z,23.38
2022-12-09T03:58:44.627Z,23.38
2022-12-09T04:01:13.958Z,21.73
2022-12-09T04:03:57.757Z,22.63
2022-12-09T04:06:32.240Z,22.02
2022-12-09T04:09:08.280Z,22.13
2022-12-09T04:11:48.137Z,21.50
2022-12-09T04:14:22.413Z,23.05
2022-12-09T04:17:02.427Z,22.73
2022-12-09T04:19:44.597Z,22.13
2022-12-09T04:22:30.782Z,21.23
2022-12-09T04:25:13.187Z,21.63
2022-12-09T04:28:00.627Z,21.40
2022-12-09T04:30:48.316Z,21.38
2022-12-09T04:33:28.441Z,22.13
2022-12-09T04:36:06.873Z,21.70
2022-12-09T04:38:49.556Z,22.08
2022-12-09T04:41:37.673Z,20.23
2022-12-09T04:44:25.359Z,19.80
2022-12-09T04:47:08.015Z,21.25
2022-12-09T04:49:58.369Z,21.35
2022-12-09T04:52:46.225Z,20.55
2022-12-09T04:55:27.424Z,21.05
2022-12-09T04:58:08.486Z,21.95
2022-12-09T05:00:56.154Z,22.67
2022-12-09T05:03:44.338Z,22.05
2022-12-09T05:06:31.331Z,20.42
2022-12-09T05:09:16.889Z,20.00
2022-12-09T05:11:58.057Z,21.88
2022-12-09T05:14:38.416Z,22.33
2022-12-09T05:17:25.399Z,20.08
2022-12-09T05:20:16.010Z,20.88
2022-12-09T05:23:07.456Z,20.88
2022-12-09T05:25:56.034Z,20.88
2022-12-09T05:28:41.643Z,21.65
2022-12-09T05:31:25.297Z,20.58
2022-12-09T05:34:07.804Z,21.92
2022-12-09T05:36:52.016Z,22.88
2022-12-09T05:39:33.918Z,22.23
2022-12-09T05:42:20.572Z,21.25
2022-12-09T05:45:07.234Z,21.35
2022-12-09T05:47:55.028Z,21.55
2022-12-09T05:50:34.805Z,21.10
2022-12-09T05:53:17.254Z,21.15
2022-12-09T05:55:54.924Z,21.90
2022-12-09T05:58:36.212Z,19.88
2022-12-09T06:01:15.582Z,21.13
2022-12-09T06:04:03.859Z,21.75
2022-12-09T06:06:51.806Z,20.58
2022-12-09T06:09:38.150Z,20.08
2022-12-09T06:12:28.151Z,20.85
2022-12-09T06:15:21.290Z,21.02
2022-12-09T06:18:05.699Z,20.85
2022-12-09T06:20:51.295Z,20.02
2022-12-09T06:23:42.218Z,17.38
2022-12-09T06:26:30.892Z,19.48
2022-12-09T06:29:15.289Z,18.88
2022-12-09T06:31:58.419Z,18.90
2022-12-09T06:34:33.640Z,16.13
2022-12-09T06:37:12.726Z,16.98
2022-12-09T06:39:58.851Z,16.40
2022-12-09T06:42:46.913Z,18.08
2022-12-09T06:45:32.089Z,18.10
2022-12-09T06:48:13.826Z,18.55
2022-12-09T06:50:58.068Z,17.27
2022-12-09T06:53:37.367Z,18.00
2022-12-09T06:56:14.420Z,17.67
2022-12-09T06:58:58.715Z,17.20
2022-12-09T07:01:38.558Z,17.90
2022-12-09T07:04:08.470Z,17.00
2022-12-09T07:06:42.016Z,17.23
2022-12-09T07:09:15.986Z,17.88
2022-12-09T07:12:04.201Z,19.25
2022-12-09T07:14:51.541Z,17.13
2022-12-09T07:17:39.238Z,16.25
2022-12-09T07:20:13.323Z,20.92
2022-12-09T07:22:45.481Z,17.98
2022-12-09T07:25:24.555Z,23.58
2022-12-09T07:28:12.048Z,21.02
2022-12-09T07:31:00.044Z,18.88
2022-12-09T07:33:45.536Z,18.80
2022-12-09T07:36:29.696Z,19.45
2022-12-09T07:39:17.971Z,19.77
2022-12-09T07:42:08.289Z,19.58
2022-12-09T07:44:49.158Z,19.77
2022-12-09T07:47:18.166Z,18.63
2022-12-09T07:49:47.864Z,19.67
2022-12-09T07:52:16.938Z,20.30
2022-12-09T07:54:47.809Z,25.70
2022-12-09T07:57:18.497Z,30.00
2022-12-09T07:59:54.099Z,33.80
2022-12-09T08:02:44.333Z,31.80
2022-12-09T08:05:32.246Z,30.63
2022-12-09T08:08:21.055Z,31.33
2022-12-09T08:11:09.468Z,28.90
2022-12-09T08:13:58.310Z,28.80
2022-12-09T08:16:46.244Z,29.75
2022-12-09T08:19:34.688Z,31.70
2022-12-09T08:22:21.794Z,30.63
2022-12-09T08:25:13.462Z,31.88
2022-12-09T08:28:00.603Z,30.25
2022-12-09T08:30:49.348Z,27.48
2022-12-09T08:33:34.351Z,28.38
2022-12-09T08:36:04.646Z,25.17
2022-12-09T08:38:37.178Z,25.38
2022-12-09T08:42:25.543Z,26.02
2022-12-09T08:45:00.339Z,26.45
2022-12-09T08:47:37.956Z,25.98
2022-12-09T08:50:09.943Z,26.40
2022-12-09T08:52:52.646Z,26.45
2022-12-09T08:55:43.027Z,27.05
2022-12-09T08:58:21.290Z,27.83
2022-12-09T09:01:01.863Z,26.52
2022-12-09T09:03:44.860Z,28.10
2022-12-09T09:06:14.275Z,27.88
2022-12-09T09:08:44.205Z,28.45
2022-12-09T09:11:18.696Z,29.02
2022-12-09T09:14:07.761Z,26.90
2022-12-09T09:16:56.213Z,27.20
2022-12-09T09:19:41.714Z,28.13
2022-12-09T09:22:17.060Z,25.85
2022-12-09T09:25:05.116Z,25.35
2022-12-09T09:27:47.242Z,26.17
2022-12-09T09:30:28.622Z,27.77
2022-12-09T09:33:16.868Z,27.35
2022-12-09T09:35:55.390Z,27.33
2022-12-09T09:38:26.390Z,25.60
2022-12-09T09:40:56.224Z,27.80
2022-12-09T09:43:26.603Z,27.23
2022-12-09T09:45:57.128Z,28.55
2022-12-09T09:48:28.888Z,28.85
2022-12-09T09:51:00.778Z,27.60
2022-12-09T09:53:34.180Z,26.17
2022-12-09T09:56:06.460Z,28.10
2022-12-09T09:58:42.798Z,25.92
2022-12-09T10:01:17.137Z,26.98
2022-12-09T10:03:49.297Z,26.27
2022-12-09T10:06:26.125Z,25.65
2022-12-09T10:08:56.695Z,25.60
2022-12-09T10:11:39.411Z,28.50
2022-12-09T10:14:08.065Z,26.10
2022-12-09T10:16:44.716Z,28.45
2022-12-09T10:19:22.690Z,26.30
2022-12-09T10:21:54.673Z,25.05
2022-12-09T10:24:38.877Z,26.85
2022-12-09T10:27:21.848Z,24.50
2022-12-09T10:30:03.818Z,24.70
2022-12-09T10:32:52.710Z,25.17
2022-12-09T10:35:25.805Z,22.70
2022-12-09T10:38:10.371Z,22.52
2022-12-09T10:41:01.348Z,26.02
2022-12-09T10:43:44.732Z,24.20
2022-12-09T10:46:20.448Z,24.73
2022-12-09T10:48:50.527Z,23.90
2022-12-09T10:51:22.221Z,25.77
2022-12-09T10:53:53.394Z,20.88
2022-12-09T10:56:29.175Z,16.30
2022-12-09T10:59:16.713Z,21.15
2022-12-09T11:01:56.713Z,20.60
2022-12-09T11:04:28.582Z,15.20
2022-12-09T11:07:00.803Z,12.93
2022-12-09T11:09:34.919Z,16.47
2022-12-09T11:12:05.997Z,20.10
2022-12-09T11:14:41.571Z,21.73
2022-12-09T11:17:25.056Z,19.00
2022-12-09T11:20:06.228Z,20.50
2022-12-09T11:23:07.491Z,18.38
2022-12-09T11:25:57.761Z,13.88
2022-12-09T11:28:38.026Z,13.77
2022-12-09T11:31:33.971Z,12.02
2022-12-09T11:34:06.412Z,12.25
2022-12-09T11:36:40.381Z,13.50
2022-12-09T11:39:24.167Z,12.18
2022-12-09T11:42:17.037Z,13.05
2022-12-09T11:44:53.453Z,11.77
2022-12-09T11:47:24.311Z,10.57
2022-12-09T11:49:58.455Z,12.25
2022-12-09T11:52:29.095Z,12.85
2022-12-09T11:55:11.491Z,9.53
2022-12-09T11:58:01.766Z,11.32
2022-12-09T12:00:37.375Z,12.48
2022-12-09T12:03:29.395Z,11.77
2022-12-09T12:05:59.065Z,9.73
2022-12-09T12:08:31.002Z,13.43
2022-12-09T12:11:15.104Z,11.60
2022-12-09T12:13:47.892Z,10.68
2022-12-09T12:16:37.707Z,12.32
2022-12-09T12:19:31.175Z,13.70
2022-12-09T12:24:38.281Z,14.65
2022-12-09T12:27:08.627Z,13.82
2022-12-09T12:29:41.894Z,12.18
2022-12-09T12:32:12.933Z,11.77
2022-12-09T12:35:00.047Z,13.80
2022-12-09T12:37:51.257Z,13.55
2022-12-09T12:40:28.409Z,12.65
2022-12-09T12:43:32.972Z,12.80
2022-12-09T12:46:18.659Z,11.70
2022-12-09T12:48:55.837Z,12.05
2022-12-09T12:51:41.443Z,12.65
2022-12-09T12:54:25.189Z,11.70
2022-12-09T12:57:22.694Z,12.98
2022-12-09T12:59:58.860Z,13.25
2022-12-09T13:02:26.954Z,12.57
2022-12-09T13:04:59.933Z,13.38
2022-12-09T13:07:38.489Z,9.48
2022-12-09T13:10:27.939Z,11.88
2022-12-09T13:13:06.707Z,11.20
2022-12-09T13:15:46.346Z,10.60
2022-12-09T13:18:38.746Z,9.38
2022-12-09T13:21:08.135Z,9.35
2022-12-09T13:23:39.834Z,9.38
2022-12-09T13:26:26.218Z,9.32
2022-12-09T13:28:57.554Z,10.07
2022-12-09T13:31:32.788Z,8.40
2022-12-09T13:34:08.748Z,9.52
2022-12-09T13:36:48.040Z,9.38
2022-12-09T13:39:36.000Z,9.35
2022-12-09T13:42:22.018Z,8.90
2022-12-09T13:44:50.327Z,9.82
2022-12-09T13:47:26.550Z,10.80
2022-12-09T13:49:57.888Z,10.15
2022-12-09T13:52:48.676Z,10.18
2022-12-09T13:55:29.035Z,10.60
2022-12-09T13:58:02.991Z,10.25
2022-12-09T14:03:32.095Z,11.00
2022-12-09T14:06:07.614Z,11.43
2022-12-09T14:08:46.870Z,12.55
2022-12-09T14:13:48.570Z,12.10
2022-12-09T14:16:29.335Z,11.88
2022-12-09T14:18:58.017Z,11.88
2022-12-09T14:21:31.621Z,13.43
2022-12-09T14:24:08.947Z,12.73
2022-12-09T14:26:38.185Z,13.07
2022-12-09T14:29:06.312Z,13.27
2022-12-09T14:31:45.562Z,13.90
2022-12-09T14:34:31.546Z,13.77
2022-12-09T14:37:16.986Z,13.88
2022-12-09T14:39:49.138Z,14.05
2022-12-09T14:42:23.370Z,15.75
2022-12-09T14:44:55.091Z,15.75
2022-12-09T14:47:31.321Z,14.02
2022-12-09T14:50:08.731Z,14.43
2022-12-09T14:52:39.054Z,14.75
2022-12-09T14:55:10.047Z,14.00
2022-12-09T14:57:45.878Z,14.43
2022-12-09T15:00:26.599Z,14.38
2022-12-09T15:03:45.304Z,13.85
2022-12-09T15:06:14.286Z,14.43
2022-12-09T15:08:43.085Z,14.25
2022-12-09T15:11:21.742Z,15.00
2022-12-09T15:14:21.396Z,14.93
2022-12-09T15:16:56.721Z,29.40
2022-12-09T15:19:59.823Z,17.40
2022-12-09T15:22:29.978Z,15.45
2022-12-09T15:27:41.869Z,16.08
2022-12-09T15:30:24.027Z,14.20
2022-12-09T15:33:15.136Z,15.70
2022-12-09T15:35:49.083Z,15.25
2022-12-09T15:38:40.888Z,15.20
2022-12-09T15:41:48.494Z,14.48
2022-12-09T15:44:22.814Z,17.38
2022-12-09T15:46:53.309Z,16.60
2022-12-09T15:49:29.367Z,17.90
2022-12-09T15:51:58.168Z,17.67
2022-12-09T15:54:30.192Z,16.23
2022-12-09T15:57:00.365Z,15.35
2022-12-09T15:59:43.048Z,15.20
2022-12-09T16:02:12.780Z,17.00
2022-12-09T16:04:46.203Z,17.65
2022-12-09T16:07:33.863Z,16.35
2022-12-09T16:10:26.544Z,15.63
2022-12-09T16:13:14.320Z,16.45
2022-12-09T16:15:52.849Z,16.60
2022-12-09T16:18:26.031Z,17.77
2022-12-09T16:21:17.463Z,17.13
2022-12-09T16:23:49.886Z,16.83
2022-12-09T16:26:29.447Z,16.15
2022-12-09T16:29:16.857Z,17.50
2022-12-09T16:31:45.503Z,16.67
2022-12-09T16:34:21.326Z,16.48
2022-12-09T16:36:56.172Z,15.48
2022-12-09T16:39:24.684Z,16.35
2022-12-09T16:42:28.279Z,16.92
2022-12-09T16:45:20.716Z,16.02
2022-12-09T16:47:55.635Z,18.10
2022-12-09T16:50:28.459Z,21.65
2022-12-09T16:52:58.649Z,22.17
2022-12-09T16:55:32.100Z,18.98
2022-12-09T16:58:01.118Z,17.80
2022-12-09T17:00:31.055Z,21.92
2022-12-09T17:03:23.911Z,22.05
2022-12-09T17:05:55.145Z,21.02
2022-12-09T17:08:26.039Z,18.35
2022-12-09T17:10:54.561Z,19.02
2022-12-09T17:13:26.163Z,18.55
2022-12-09T17:15:58.335Z,20.65
2022-12-09T17:18:33.335Z,21.77
2022-12-09T17:21:05.263Z,22.10
2022-12-09T17:23:39.659Z,25.45
2022-12-09T17:26:10.461Z,24.23
2022-12-09T17:28:39.519Z,27.80
2022-12-09T17:31:27.406Z,24.25
2022-12-09T17:34:15.247Z,26.05
2022-12-09T17:37:02.908Z,27.10
2022-12-09T17:39:58.297Z,25.90
2022-12-09T17:42:37.126Z,25.85
2022-12-09T17:45:07.751Z,25.63
2022-12-09T17:47:44.276Z,26.05
2022-12-09T17:50:12.884Z,26.83
2022-12-09T17:52:43.911Z,26.42
2022-12-09T17:55:13.582Z,25.25
2022-12-09T17:57:52.667Z,25.42
2022-12-09T18:00:25.187Z,26.45
2022-12-09T18:03:17.713Z,27.58
2022-12-09T18:06:08.849Z,25.45
2022-12-09T18:08:58.872Z,26.35
2022-12-09T18:11:46.845Z,27.00
2022-12-09T18:14:16.530Z,25.25
2022-12-09T18:16:49.156Z,27.00
2022-12-09T18:19:20.319Z,26.23
2022-12-09T18:21:49.289Z,27.70
2022-12-09T18:24:18.823Z,27.27
2022-12-09T18:26:47.577Z,26.38
2022-12-09T18:29:18.644Z,29.65
2022-12-09T18:34:46.423Z,30.00
2022-12-09T18:37:41.930Z,28.00
2022-12-09T18:41:01.860Z,28.10
2022-12-09T18:43:45.678Z,29.85
2022-12-09T18:46:26.919Z,30.50
2022-12-09T18:49:14.060Z,29.75
2022-12-09T18:52:36.460Z,27.77
2022-12-09T19:38:06.929Z,30.70
2022-12-09T19:40:42.428Z,30.73
2022-12-09T19:43:13.538Z,30.83
2022-12-09T19:45:44.160Z,31.35
2022-12-09T19:48:31.866Z,32.10
2022-12-09T19:51:20.253Z,30.80
2022-12-09T19:54:07.946Z,30.48
2022-12-09T19:56:39.515Z,32.42
2022-12-09T19:59:25.309Z,29.80
2022-12-09T20:02:13.983Z,29.55
2022-12-09T20:05:01.603Z,30.17
2022-12-09T20:07:49.436Z,29.98
2022-12-09T20:10:18.679Z,31.10
2022-12-09T20:12:51.040Z,29.40
2022-12-09T20:15:19.308Z,32.72
2022-12-09T20:17:53.481Z,31.15
2022-12-09T20:20:25.802Z,29.58
2022-12-09T20:22:59.014Z,31.55
2022-12-09T20:25:27.976Z,31.60
2022-12-09T20:27:57.364Z,29.88
2022-12-09T20:30:27.599Z,30.23
2022-12-09T20:33:12.866Z,30.15
2022-12-09T20:35:41.215Z,29.70
2022-12-09T20:38:12.666Z,30.77
2022-12-09T20:40:41.174Z,31.60
2022-12-09T20:43:09.573Z,31.52
2022-12-09T20:45:41.895Z,30.52
2022-12-09T20:48:13.962Z,31.73
2022-12-09T20:51:03.830Z,31.02
2022-12-09T20:53:47.979Z,34.15
2022-12-09T20:56:30.519Z,28.95
2022-12-09T20:59:10.749Z,30.17
2022-12-09T21:01:43.675Z,32.83
2022-12-09T21:04:15.648Z,33.30
2022-12-09T21:06:46.353Z,31.73
2022-12-09T21:09:18.540Z,30.30
2022-12-09T21:11:52.053Z,32.08
2022-12-09T21:14:20.615Z,31.60
2022-12-09T21:16:51.192Z,31.83
2022-12-09T21:19:24.383Z,30.63
2022-12-09T21:21:54.401Z,31.13
2022-12-09T21:24:24.562Z,28.83
2022-12-09T21:26:55.494Z,31.58
2022-12-09T21:29:30.127Z,31.17
2022-12-09T21:32:02.953Z,32.00
2022-12-09T21:34:46.082Z,31.95
2022-12-09T21:37:20.775Z,33.38
2022-12-09T21:40:02.450Z,33.53
2022-12-09T21:42:50.273Z,32.58
2022-12-09T21:45:38.009Z,32.85
2022-12-09T21:48:25.605Z,31.77
2022-12-09T21:51:13.924Z,30.90
2022-12-09T21:53:47.021Z,32.72
2022-12-09T21:56:19.450Z,30.02
2022-12-09T21:58:51.095Z,31.95
2022-12-09T22:01:21.260Z,31.98
2022-12-09T22:03:56.485Z,34.70
2022-12-09T22:06:25.336Z,31.80
2022-12-09T22:08:53.988Z,30.30
2022-12-09T22:11:24.238Z,33.47
2022-12-09T22:14:06.431Z,31.38
2022-12-09T22:16:39.865Z,30.60
2022-12-09T22:19:27.673Z,31.55
2022-12-09T22:22:17.591Z,31.13
2022-12-09T22:25:01.761Z,32.70
2022-12-09T22:27:37.619Z,30.75
2022-12-09T22:30:06.740Z,32.05
2022-12-09T22:32:54.606Z,31.40
2022-12-09T22:35:37.322Z,30.15
2022-12-09T22:38:28.342Z,29.58
2022-12-09T22:41:17.091Z,31.83
2022-12-09T22:44:00.856Z,31.05
2022-12-09T22:46:51.452Z,30.23
2022-12-09T22:49:20.552Z,30.65
2022-12-09T22:51:50.150Z,31.92
2022-12-09T22:54:18.534Z,31.42
2022-12-09T22:56:47.261Z,31.88
2022-12-09T22:59:19.043Z,32.78
2022-12-09T23:01:48.288Z,31.58
2022-12-09T23:04:23.113Z,32.75
2022-12-09T23:07:10.765Z,29.05
2022-12-09T23:09:39.437Z,31.85
2022-12-09T23:12:09.380Z,32.83
2022-12-09T23:14:40.555Z,28.95
2022-12-09T23:17:13.846Z,28.42
2022-12-09T23:19:44.551Z,28.85
2022-12-09T23:22:13.463Z,30.83
2022-12-09T23:24:44.386Z,29.17
2022-12-09T23:27:34.407Z,28.42
2022-12-09T23:30:21.998Z,30.70
2022-12-09T23:33:12.010Z,28.35
2022-12-09T23:35:59.627Z,28.73
2022-12-09T23:38:31.494Z,27.13
2022-12-09T23:41:03.516Z,26.30
2022-12-09T23:43:33.357Z,26.17
2022-12-09T23:46:03.394Z,27.58
2022-12-09T23:48:35.778Z,31.27
2022-12-09T23:51:17.775Z,32.33
2022-12-09T23:53:47.075Z,29.58
2022-12-09T23:56:18.341Z,28.42
2022-12-09T23:59:09.765Z,32.17
